Time;durP1;ratioP1;P1;durP2;ratioP2;P2;SDS_P1;SDS_P2;PMS_P1;PMS_P2;Temp;Humidity;BMP_temperature;BMP_pressure;BME280_temperature;BME280_humidity;BME280_pressure;Samples;Min_cycle;Max_cycle;Signal;HPM_P1;HPM_P2
2022/09/08 00:01:33;;;;;;;8.00;3.15;;;;;;;20.78;59.75;100809.44;6183752;23;20004;-92
2022/09/08 00:04:01;;;;;;;4.47;2.97;;;;;;;20.66;60.35;100774.69;6210549;23;20348;-91
2022/09/08 00:06:26;;;;;;;6.20;3.08;;;;;;;20.68;61.53;100778.97;6184454;23;20047;-91
2022/09/08 00:08:55;;;;;;;5.65;2.97;;;;;;;20.45;62.34;100793.41;6184411;23;20332;-92
2022/09/08 00:11:23;;;;;;;6.57;3.20;;;;;;;19.98;64.59;100796.31;6183289;23;20015;-91
2022/09/08 00:13:49;;;;;;;9.93;3.20;;;;;;;19.82;65.42;100815.47;6183015;23;20012;-91
2022/09/08 00:16:18;;;;;;;13.68;3.67;;;;;;;19.75;66.70;100833.00;6184367;23;20471;-92
2022/09/08 00:18:44;;;;;;;10.52;3.78;;;;;;;19.58;68.54;100839.69;6184028;23;20017;-93
2022/09/08 00:21:09;;;;;;;12.43;4.30;;;;;;;19.25;70.32;100831.53;6181846;23;20314;-93
2022/09/08 00:23:35;;;;;;;10.80;3.80;;;;;;;19.18;70.84;100825.81;6184146;23;20008;-94
2022/09/08 00:26:00;;;;;;;8.93;4.25;;;;;;;19.10;71.72;100793.38;6211022;23;20397;-93
2022/09/08 00:28:26;;;;;;;12.77;4.50;;;;;;;19.33;72.14;100816.56;6182609;23;20008;-93
2022/09/08 00:30:51;;;;;;;13.18;4.80;;;;;;;19.07;72.75;100817.72;6180542;23;20043;-92
2022/09/08 00:33:16;;;;;;;9.75;4.03;;;;;;;18.99;72.32;100796.88;6184284;23;20001;-93
2022/09/08 00:35:43;;;;;;;9.75;3.45;;;;;;;19.19;71.89;100807.91;6167762;23;20442;-92
2022/09/08 00:38:09;;;;;;;7.97;3.70;;;;;;;19.29;70.88;100812.41;6181827;23;20429;-93
2022/09/08 00:40:46;;;;;;;9.52;3.72;;;;;;;19.38;71.05;100810.88;6152449;23;20012;-93
2022/09/08 00:43:35;;;;;;;6.93;4.22;;;;;;;19.50;69.21;100804.56;6154698;23;20049;-92
2022/09/08 00:46:18;;;;;;;9.07;3.63;;;;;;;19.44;68.61;100790.75;6155243;23;20016;-92
2022/09/08 00:48:55;;;;;;;7.95;3.58;;;;;;;19.43;70.43;100781.00;6132319;23;20009;-92
2022/09/08 00:51:22;;;;;;;12.07;4.07;;;;;;;19.41;71.98;100767.75;6154466;23;20483;-91
2022/09/08 00:53:48;;;;;;;9.77;3.80;;;;;;;19.00;72.58;100771.78;6153700;23;20088;-93
2022/09/08 00:56:15;;;;;;;9.55;3.88;;;;;;;18.92;73.42;100778.69;6154870;23;20001;-92
2022/09/08 00:58:41;;;;;;;11.88;4.15;;;;;;;18.93;73.24;100764.31;6153804;23;20071;-93
2022/09/08 01:01:07;;;;;;;8.85;3.88;;;;;;;19.02;73.25;100769.84;6152467;23;20387;-93
2022/09/08 01:03:33;;;;;;;8.85;4.30;;;;;;;19.08;73.88;100761.34;6181298;23;20023;-91
2022/09/08 01:12:43;;;;;;;7.60;3.72;;;;;;;19.21;73.62;100766.63;6154123;23;20441;-91
2022/09/08 01:14:53;;;;;;;9.40;3.92;;;;;;;19.44;72.61;100755.91;6177625;23;20578;-92
2022/09/08 01:17:27;;;;;;;11.98;3.60;;;;;;;19.53;72.46;100760.53;6154118;23;20421;-91
2022/09/08 01:19:54;;;;;;;10.75;4.28;;;;;;;19.41;73.13;100750.81;6152027;23;20009;-92
2022/09/08 01:22:47;;;;;;;7.10;3.38;;;;;;;19.53;70.85;100744.44;6179136;23;20079;-92
2022/09/08 01:25:41;;;;;;;6.75;3.50;;;;;;;19.53;71.31;100739.09;6128849;23;20441;-91
2022/09/08 01:28:14;;;;;;;5.85;3.40;;;;;;;19.52;72.30;100723.97;6153461;23;20009;-91
2022/09/08 01:30:42;;;;;;;7.45;3.72;;;;;;;19.48;73.64;100719.84;6149824;23;20013;-92
2022/09/08 01:33:09;;;;;;;7.32;3.40;;;;;;;19.47;71.65;100716.31;6153528;23;20015;-91
2022/09/08 01:35:39;;;;;;;11.25;3.72;;;;;;;19.19;72.32;100706.06;6194296;23;20008;-91
2022/09/08 01:38:06;;;;;;;9.55;3.78;;;;;;;19.30;72.66;100728.34;6183184;23;20004;-92
2022/09/08 01:40:32;;;;;;;7.47;3.78;;;;;;;19.33;73.22;100736.16;6208343;23;20032;-91
2022/09/08 01:42:57;;;;;;;7.53;3.78;;;;;;;19.01;73.80;100730.63;6184706;23;20308;-92
2022/09/08 01:45:23;;;;;;;6.72;3.22;;;;;;;18.97;73.10;100733.66;6207421;23;20004;-91
2022/09/08 01:47:50;;;;;;;8.95;4.05;;;;;;;18.95;75.93;100736.47;6184006;23;20004;-91
2022/09/08 01:50:16;;;;;;;8.73;3.83;;;;;;;18.95;74.51;100730.25;6181653;23;20008;-91
2022/09/08 01:52:41;;;;;;;9.13;4.43;;;;;;;18.80;75.81;100716.22;6210201;23;20036;-91
2022/09/08 01:55:07;;;;;;;8.93;4.22;;;;;;;18.93;76.26;100708.94;6209263;23;20087;-90
2022/09/08 01:57:33;;;;;;;10.82;4.97;;;;;;;18.92;76.59;100696.50;6182320;23;20008;-90
2022/09/08 01:59:58;;;;;;;10.10;4.80;;;;;;;18.81;77.20;100693.81;6180743;23;20425;-92
2022/09/08 02:02:23;;;;;;;8.73;4.28;;;;;;;18.76;77.02;100691.47;6182545;23;20031;-92
2022/09/08 02:04:49;;;;;;;9.45;4.05;;;;;;;18.72;76.32;100698.03;6208683;23;20054;-90
2022/09/08 02:07:14;;;;;;;5.30;3.47;;;;;;;18.75;74.98;100689.78;6182229;23;20005;-90
2022/09/08 02:09:39;;;;;;;8.38;3.47;;;;;;;18.63;75.33;100653.19;6209070;23;20001;-89
2022/09/08 02:12:05;;;;;;;8.50;3.58;;;;;;;18.56;75.72;100651.97;6181972;23;20524;-90
2022/09/08 02:14:30;;;;;;;8.77;3.58;;;;;;;18.73;75.05;100681.00;6180511;23;20023;-90
2022/09/08 02:16:55;;;;;;;9.95;3.53;;;;;;;18.68;75.68;100668.91;6183064;23;20009;-91
2022/09/08 02:19:20;;;;;;;8.57;3.40;;;;;;;18.68;74.62;100655.50;6209881;23;20030;-91
2022/09/08 02:21:46;;;;;;;6.35;3.22;;;;;;;18.67;74.68;100651.97;6210259;23;20001;-92
2022/09/08 02:24:11;;;;;;;9.32;3.17;;;;;;;18.73;73.77;100646.19;6210032;23;20117;-91
2022/09/08 02:26:38;;;;;;;6.22;3.42;;;;;;;18.83;74.42;100657.88;6182704;23;20005;-91
2022/09/08 02:29:04;;;;;;;8.02;3.42;;;;;;;18.74;73.63;100644.34;6183215;23;20008;-92
2022/09/08 02:31:30;;;;;;;4.65;2.97;;;;;;;18.81;73.79;100654.47;6179292;23;20011;-92
2022/09/08 02:33:56;;;;;;;4.65;3.05;;;;;;;18.82;73.74;100652.66;6182971;23;20008;-92
2022/09/08 02:36:22;;;;;;;8.90;3.75;;;;;;;18.81;74.23;100657.16;6210052;23;20091;-92
2022/09/08 02:38:49;;;;;;;11.20;3.70;;;;;;;18.66;74.73;100662.81;6185050;23;20035;-93
2022/09/08 02:41:16;;;;;;;6.03;3.72;;;;;;;18.59;75.29;100667.78;6183821;23;20004;-93
2022/09/08 02:43:41;;;;;;;7.25;3.67;;;;;;;18.36;75.80;100669.53;6184610;23;20008;-93
2022/09/08 02:46:08;;;;;;;6.82;3.83;;;;;;;18.40;76.21;100681.72;6184071;23;20107;-93
2022/09/08 02:48:34;;;;;;;13.60;4.13;;;;;;;18.41;75.87;100679.88;6210660;23;20001;-93
2022/09/08 02:51:01;;;;;;;7.30;3.90;;;;;;;18.43;75.45;100667.25;6183502;23;20004;-93
2022/09/08 02:53:28;;;;;;;5.28;3.45;;;;;;;18.55;75.22;100671.66;6210651;23;20314;-93
2022/09/08 02:55:53;;;;;;;13.45;4.40;;;;;;;18.48;76.19;100673.09;6184643;23;20389;-93
2022/09/08 02:58:18;;;;;;;5.10;4.28;;;;;;;18.30;76.67;100670.84;6184501;23;20019;-93
2022/09/08 03:00:43;;;;;;;8.50;4.10;;;;;;;18.33;76.41;100659.91;6185387;23;20429;-93
2022/09/08 03:03:09;;;;;;;7.97;4.50;;;;;;;18.45;76.41;100671.50;6162654;23;20067;-93
2022/09/08 03:05:34;;;;;;;5.82;3.58;;;;;;;18.54;75.10;100669.97;6186711;23;20407;-93
2022/09/08 03:08:02;;;;;;;5.13;3.58;;;;;;;18.50;74.53;100674.69;6186368;23;20004;-93
2022/09/08 03:10:27;;;;;;;8.05;3.97;;;;;;;18.59;74.91;100678.50;6185110;23;20001;-93
2022/09/08 03:12:55;;;;;;;7.35;4.13;;;;;;;18.45;76.28;100647.41;6187637;23;20082;-93
2022/09/08 03:15:23;;;;;;;7.15;3.85;;;;;;;18.54;76.14;100686.03;6186971;23;20008;-92
2022/09/08 03:17:48;;;;;;;6.85;4.05;;;;;;;18.15;76.73;100663.13;6186212;23;20433;-93
2022/09/08 03:20:14;;;;;;;6.55;3.75;;;;;;;18.17;76.13;100664.69;6211046;23;20012;-93
2022/09/08 03:22:40;;;;;;;7.57;4.07;;;;;;;18.14;77.26;100672.97;6185373;23;20008;-92
2022/09/08 03:25:06;;;;;;;5.68;3.13;;;;;;;18.12;76.10;100674.91;6184691;23;20337;-92
2022/09/08 03:27:33;;;;;;;6.40;3.47;;;;;;;18.14;76.77;100651.56;6185752;23;20039;-93
2022/09/08 03:29:59;;;;;;;8.10;3.35;;;;;;;18.21;76.75;100659.97;6210978;23;20088;-93
2022/09/08 03:32:25;;;;;;;6.43;3.05;;;;;;;18.29;75.57;100666.47;6186379;23;20015;-93
2022/09/08 03:34:50;;;;;;;8.63;3.53;;;;;;;18.22;76.16;100649.16;6159968;23;20507;-92
2022/09/08 03:37:15;;;;;;;8.00;3.50;;;;;;;18.29;76.01;100668.28;6185230;23;20336;-92
2022/09/08 03:39:40;;;;;;;5.10;2.97;;;;;;;18.11;76.12;100675.88;6210967;23;20012;-91
2022/09/08 03:42:06;;;;;;;10.90;3.55;;;;;;;17.80;77.01;100670.09;6185056;23;20051;-92
2022/09/08 03:44:32;;;;;;;6.82;2.97;;;;;;;17.71;77.24;100681.41;6210618;23;20005;-92
2022/09/08 03:46:58;;;;;;;5.72;2.72;;;;;;;17.77;77.24;100702.41;6183458;23;20015;-92
2022/09/08 03:49:24;;;;;;;6.40;3.00;;;;;;;17.85;76.37;100705.38;6184702;23;20031;-93
2022/09/08 03:51:50;;;;;;;7.70;3.20;;;;;;;17.86;77.13;100690.22;6186364;23;20425;-93
2022/09/08 03:56:59;;;;;;;6.65;3.15;;;;;;;17.96;76.49;100674.34;6191901;23;20070;-93
2022/09/08 03:59:25;;;;;;;7.35;3.47;;;;;;;18.00;77.07;100667.75;6185220;23;20016;-93
2022/09/08 04:01:51;;;;;;;8.23;3.80;;;;;;;17.91;77.08;100647.94;6162647;23;20316;-94
2022/09/08 04:04:21;;;;;;;6.57;2.90;;;;;;;17.98;77.30;100651.00;6214506;23;20413;-93
2022/09/08 04:06:47;;;;;;;7.28;3.40;;;;;;;17.99;77.30;100655.38;6187308;23;20008;-93
2022/09/08 04:09:12;;;;;;;6.45;3.00;;;;;;;18.03;76.92;100659.53;6187298;23;20001;-93
2022/09/08 04:11:37;;;;;;;7.32;3.08;;;;;;;17.92;76.37;100654.13;6184908;23;20036;-92
2022/09/08 04:14:03;;;;;;;5.90;3.00;;;;;;;17.83;76.48;100658.31;6211302;23;20032;-93
2022/09/08 04:16:30;;;;;;;4.47;2.45;;;;;;;17.83;75.75;100659.19;6185491;23;20032;-93
2022/09/08 04:18:55;;;;;;;6.93;2.85;;;;;;;17.83;76.81;100671.69;6184918;23;20004;-94
2022/09/08 04:21:20;;;;;;;4.53;3.08;;;;;;;17.87;76.24;100669.66;6184456;23;20322;-93
2022/09/08 04:23:46;;;;;;;5.35;2.80;;;;;;;17.82;76.65;100670.84;6185384;23;20310;-93
2022/09/08 04:26:13;;;;;;;4.60;2.90;;;;;;;17.81;76.34;100685.19;6184433;23;20004;-94
2022/09/08 04:28:46;;;;;;;3.88;2.55;;;;;;;17.73;76.02;100667.97;6210215;23;20059;-93
2022/09/08 04:31:33;;;;;;;;;;;;;;;;;;;;;
2022/09/08 04:34:22;;;;;;;4.75;3.13;;;;;;;17.76;75.89;100673.09;6209852;23;20505;-92
2022/09/08 04:37:10;;;;;;;;;;;;;;;;;;;;;
2022/09/08 04:39:56;;;;;;;5.72;3.00;;;;;;;17.84;76.17;100676.06;6183228;23;20068;-93
2022/09/08 04:42:24;;;;;;;10.65;3.50;;;;;;;17.79;76.61;100675.56;6120938;23;20032;-95
2022/09/08 04:44:49;;;;;;;6.97;3.50;;;;;;;17.69;77.14;100672.66;6154112;23;20533;-92
2022/09/08 04:47:50;;;;;;;6.10;3.30;;;;;;;17.68;77.08;100683.50;6181360;23;20033;-93
2022/09/08 06:03:11;;;;;;;10.93;5.45;;;;;;;17.17;81.95;100694.25;6206461;23;20047;-92
2022/09/08 06:05:37;;;;;;;9.25;5.50;;;;;;;17.23;82.40;100708.03;6185584;23;20441;-93
2022/09/08 06:08:02;;;;;;;7.93;5.28;;;;;;;17.25;81.18;100707.91;6185587;23;20020;-93
2022/09/08 06:10:27;;;;;;;9.48;5.05;;;;;;;17.20;81.39;100700.22;6183435;23;20090;-93
2022/09/08 06:12:54;;;;;;;9.43;6.15;;;;;;;17.23;81.74;100707.16;6184435;23;20322;-93
2022/09/08 06:15:19;;;;;;;8.73;5.63;;;;;;;17.11;81.25;100691.97;6183997;23;20008;-93
2022/09/08 06:17:45;;;;;;;9.25;5.65;;;;;;;17.12;82.13;100699.91;6183791;23;20004;-93
2022/09/08 06:20:10;;;;;;;11.63;5.28;;;;;;;17.24;81.74;100698.19;6180841;23;20452;-94
2022/09/08 06:22:35;;;;;;;10.35;6.00;;;;;;;17.29;81.67;100693.38;6182232;23;20054;-93
2022/09/08 06:25:01;;;;;;;10.35;5.50;;;;;;;17.32;81.29;100693.16;6182773;23;20013;-91
2022/09/08 06:27:31;;;;;;;9.45;6.25;;;;;;;17.34;82.08;100704.59;6183004;23;20003;-92
2022/09/08 06:30:18;;;;;;;12.70;6.85;;;;;;;17.41;80.98;100705.03;6207956;23;20551;-92
2022/09/08 06:32:50;;;;;;;6.18;4.78;;;;;;;17.42;80.40;100696.88;6182531;23;20008;-92
2022/09/08 06:35:30;;;;;;;10.80;6.00;;;;;;;17.43;81.33;100706.59;6208982;23;20095;-92
2022/09/08 06:37:59;;;;;;;10.02;5.60;;;;;;;17.40;80.31;100704.16;6208860;23;20047;-94
2022/09/08 06:40:33;;;;;;;9.48;5.30;;;;;;;17.44;80.54;100707.47;6181036;23;20011;-93
2022/09/08 06:43:11;;;;;;;10.27;5.70;;;;;;;17.55;81.13;100712.91;6184930;23;20051;-93
2022/09/08 06:45:41;;;;;;;7.95;5.43;;;;;;;17.45;80.77;100703.84;6182428;23;20023;-91
2022/09/08 06:48:23;;;;;;;11.02;5.90;;;;;;;17.44;80.54;100703.00;6183371;23;20008;-88
2022/09/08 06:50:55;;;;;;;6.85;5.05;;;;;;;17.58;81.27;100720.72;6181398;23;20010;-89
2022/09/08 06:53:24;;;;;;;8.80;5.40;;;;;;;17.56;80.42;100719.97;6208215;23;20317;-89
2022/09/08 06:56:01;;;;;;;9.93;5.15;;;;;;;17.61;80.69;100720.47;6182082;23;20032;-89
2022/09/08 06:58:31;;;;;;;7.13;4.30;;;;;;;17.63;79.86;100699.00;6182708;23;20004;-89
2022/09/08 07:01:12;;;;;;;10.57;4.90;;;;;;;17.71;81.11;100718.84;6181643;23;20325;-90
2022/09/08 07:04:00;;;;;;;8.30;5.35;;;;;;;17.83;80.68;100722.50;6182530;23;20437;-90
2022/09/08 07:06:31;;;;;;;9.70;5.97;;;;;;;17.77;79.86;100707.78;6209173;23;20048;-89
2022/09/08 07:09:10;;;;;;;11.18;5.75;;;;;;;17.81;79.52;100717.28;6209529;23;20009;-89
2022/09/08 07:11:38;;;;;;;12.38;6.68;;;;;;;17.74;80.56;100713.34;6181799;23;20004;-90
2022/09/08 07:14:43;;;;;;;12.35;7.10;;;;;;;17.81;79.62;100713.72;6183062;23;20013;-89
2022/09/08 07:17:14;;;;;;;11.77;7.07;;;;;;;17.81;80.26;100714.59;6210032;23;20004;-90
2022/09/08 07:19:50;;;;;;;10.75;7.43;;;;;;;17.89;79.61;100723.88;6181196;23;20005;-89
2022/09/08 07:22:36;;;;;;;15.00;8.20;;;;;;;18.01;79.61;100723.84;6212239;23;19996;-89
2022/09/08 07:25:08;;;;;;;12.18;7.97;;;;;;;17.94;79.88;100709.19;6183808;23;20004;-89
2022/09/08 07:27:35;;;;;;;10.23;6.63;;;;;;;17.89;79.69;100708.69;6211305;23;20496;-89
2022/09/08 07:30:04;;;;;;;12.00;7.82;;;;;;;17.96;78.71;100719.81;6183169;23;20005;-89
2022/09/08 07:32:32;;;;;;;10.18;7.40;;;;;;;18.03;78.87;100731.75;6210423;23;20000;-90
2022/09/08 07:35:24;;;;;;;11.45;7.03;;;;;;;18.17;78.61;100726.25;6183983;23;20020;-89
2022/09/08 07:37:53;;;;;;;11.48;7.78;;;;;;;18.09;79.24;100718.81;6130595;23;20008;-90
2022/09/08 07:40:38;;;;;;;13.13;7.38;;;;;;;18.30;78.24;100712.81;6184735;23;20040;-90
2022/09/08 07:43:15;;;;;;;11.60;7.60;;;;;;;18.28;78.10;100715.63;6211224;23;20032;-89
2022/09/08 07:46:33;;;;;;;13.45;7.35;;;;;;;18.44;77.04;100714.47;6211760;23;20031;-89
2022/09/08 07:48:58;;;;;;;10.43;7.53;;;;;;;18.47;75.93;100717.78;6066168;23;20013;-90
2022/09/08 07:51:33;;;;;;;9.80;7.53;;;;;;;18.44;77.33;100717.13;6158122;23;20008;-89
2022/09/08 07:54:05;;;;;;;14.88;8.15;;;;;;;18.90;77.41;100735.97;6185062;23;20695;-89
2022/09/08 07:57:04;;;;;;;14.98;7.43;;;;;;;19.25;75.44;100729.69;6211274;23;19998;-89
2022/09/08 07:59:45;;;;;;;11.60;6.75;;;;;;;19.21;73.96;100725.53;6209419;23;20004;-89
2022/09/08 08:02:22;;;;;;;13.25;7.55;;;;;;;19.21;74.56;100730.88;6183133;23;20556;-89
2022/09/08 08:05:00;;;;;;;10.38;7.28;;;;;;;19.45;74.44;100739.72;6184332;23;20024;-89
2022/09/08 08:08:00;;;;;;;8.57;6.35;;;;;;;19.51;73.38;100738.38;6185087;23;20448;-90
2022/09/08 08:10:29;;;;;;;9.93;7.45;;;;;;;19.40;73.03;100744.59;6210072;23;20007;-89
2022/09/08 08:13:24;;;;;;;10.32;7.07;;;;;;;19.64;72.71;100735.59;6183443;23;20448;-89
2022/09/08 08:16:00;;;;;;;10.90;7.60;;;;;;;19.80;70.33;100726.19;6163622;23;20428;-89
2022/09/08 08:18:26;;;;;;;9.85;8.00;;;;;;;19.83;69.50;100733.16;6210786;23;20379;-89
2022/09/08 08:20:59;;;;;;;11.95;7.78;;;;;;;19.97;69.55;100740.09;6210716;23;20001;-90
2022/09/08 08:23:50;;;;;;;9.80;7.85;;;;;;;20.04;69.52;100738.59;6211753;23;20474;-90
2022/09/08 08:26:28;;;;;;;8.65;6.75;;;;;;;20.04;68.09;100738.59;6130473;23;20019;-89
2022/09/08 08:29:25;;;;;;;10.02;6.72;;;;;;;20.13;69.13;100743.22;6183981;23;20079;-89
2022/09/08 08:31:58;;;;;;;11.38;7.68;;;;;;;19.78;68.77;100733.53;6185071;23;20317;-90
2022/09/08 08:34:31;;;;;;;7.88;6.65;;;;;;;19.72;68.89;100730.47;6185402;23;20001;-90
2022/09/08 08:37:05;;;;;;;8.40;5.88;;;;;;;19.82;68.63;100751.06;6182619;23;20432;-90
2022/09/08 08:39:34;;;;;;;5.60;4.80;;;;;;;19.69;67.66;100731.56;6182508;23;20009;-89
2022/09/08 08:42:31;;;;;;;7.70;5.13;;;;;;;20.18;67.74;100743.69;6183294;23;20437;-91
2022/09/08 08:45:24;;;;;;;7.95;5.68;;;;;;;20.35;68.50;100743.16;6181741;23;20371;-90
2022/09/08 08:48:12;;;;;;;6.45;4.70;;;;;;;20.37;66.09;100746.53;6182816;23;20016;-90
2022/09/08 08:51:24;;;;;;;5.45;4.25;;;;;;;20.11;66.85;100747.88;6182099;23;20013;-90
2022/09/08 08:54:02;;;;;;;6.05;4.10;;;;;;;19.83;67.11;100730.47;6127643;23;20012;-88
2022/09/08 08:56:33;;;;;;;6.95;4.57;;;;;;;20.32;65.58;100737.19;6208308;23;20443;-89
2022/09/08 08:59:36;;;;;;;8.20;4.53;;;;;;;20.93;63.50;100747.31;6175249;23;20004;-90
2022/09/08 09:02:10;;;;;;;4.82;4.43;;;;;;;21.48;61.81;100739.91;6181984;23;20011;-91
2022/09/08 09:04:57;;;;;;;5.43;3.90;;;;;;;22.05;63.20;100741.94;6207424;23;20024;-89
2022/09/08 09:07:34;;;;;;;5.28;3.50;;;;;;;22.02;59.56;100739.56;6181131;23;20471;-89
2022/09/08 09:10:15;;;;;;;5.30;3.20;;;;;;;22.28;61.85;100733.66;6180915;23;20038;-89
2022/09/08 09:13:10;;;;;;;5.70;2.53;;;;;;;23.10;59.34;100749.44;6205579;23;20015;-88
2022/09/08 09:15:51;;;;;;;3.10;2.08;;;;;;;23.25;57.55;100745.28;6207975;23;20015;-88
2022/09/08 09:18:33;;;;;;;4.68;2.33;;;;;;;23.96;54.26;100742.03;6206282;23;20008;-90
2022/09/08 09:21:12;;;;;;;5.43;2.30;;;;;;;24.16;54.74;100740.09;6206016;23;20009;-90
2022/09/08 09:23:40;;;;;;;5.50;2.10;;;;;;;24.82;51.73;100733.47;6207388;23;20495;-91
2022/09/08 09:26:19;;;;;;;5.63;1.90;;;;;;;25.26;49.46;100731.63;6207031;23;20010;-89
2022/09/08 09:29:03;;;;;;;5.70;1.77;;;;;;;24.83;52.03;100733.31;6180710;23;20004;-89
2022/09/08 09:31:54;;;;;;;3.42;1.60;;;;;;;23.99;53.12;100740.91;6180098;23;20079;-89
2022/09/08 09:34:29;;;;;;;5.63;1.92;;;;;;;23.59;53.91;100739.34;6208516;23;20389;-88
2022/09/08 09:37:22;;;;;;;2.65;1.70;;;;;;;23.38;55.69;100737.72;6179496;23;20440;-89
2022/09/08 09:40:02;;;;;;;4.57;1.77;;;;;;;23.74;54.03;100737.91;6208580;23;20005;-88
2022/09/08 09:42:31;;;;;;;6.32;2.03;;;;;;;23.84;52.82;100733.31;6206552;23;20008;-89
2022/09/08 09:45:12;;;;;;;4.35;2.05;;;;;;;24.16;53.37;100732.84;6202877;23;20004;-89
2022/09/08 09:48:17;;;;;;;6.65;2.05;;;;;;;25.00;52.20;100737.00;6203952;23;20001;-90
2022/09/08 09:50:57;;;;;;;3.70;1.10;;;;;;;25.91;47.58;100736.56;6180040;23;20012;-89
2022/09/08 09:53:51;;;;;;;2.45;0.98;;;;;;;25.67;46.52;100737.28;6201148;23;20039;-89
2022/09/08 09:56:40;;;;;;;2.05;0.80;;;;;;;25.82;45.86;100732.97;6180146;23;20086;-89
2022/09/08 09:59:25;;;;;;;4.18;1.30;;;;;;;26.24;46.11;100736.66;6206578;23;20008;-90
2022/09/08 10:02:12;;;;;;;6.63;1.50;;;;;;;26.03;45.31;100734.41;6207813;23;19996;-88
2022/09/08 10:04:53;;;;;;;3.40;0.95;;;;;;;26.09;45.45;100729.16;6209003;23;20386;-90
2022/09/08 10:07:24;;;;;;;3.85;1.48;;;;;;;25.73;45.52;100731.19;6208017;23;20463;-89
2022/09/08 10:10:01;;;;;;;3.13;1.37;;;;;;;25.43;46.94;100733.44;6206680;23;20058;-89
2022/09/08 10:12:53;;;;;;;4.30;1.63;;;;;;;25.63;46.29;100730.47;6203588;23;20008;-89
2022/09/08 10:16:01;;;;;;;3.00;1.30;;;;;;;26.79;44.70;100733.38;6176698;23;20020;-90
2022/09/08 10:18:51;;;;;;;2.67;1.20;;;;;;;26.44;43.84;100740.81;6181281;23;20055;-89
2022/09/08 10:21:36;;;;;;;4.05;1.38;;;;;;;26.95;43.84;100736.94;6208817;23;20023;-90
2022/09/08 10:24:19;;;;;;;3.70;1.20;;;;;;;27.30;42.09;100739.44;6185294;23;20062;-90
2022/09/08 10:27:06;;;;;;;4.57;1.40;;;;;;;27.75;41.71;100738.84;6208275;23;20008;-89
2022/09/08 10:29:34;;;;;;;3.25;1.10;;;;;;;27.40;42.01;100735.50;6179966;23;20005;-90
2022/09/08 10:32:34;;;;;;;3.65;1.42;;;;;;;27.40;41.78;100721.94;6207093;23;20260;-90
2022/09/08 10:35:28;;;;;;;4.70;1.30;;;;;;;28.24;41.77;100744.03;6180904;23;20014;-91
2022/09/08 10:38:30;;;;;;;3.92;1.17;;;;;;;27.21;42.33;100747.59;6209004;23;20001;-90
2022/09/08 10:40:56;;;;;;;5.90;1.95;;;;;;;27.71;41.18;100738.34;6207771;23;20012;-91
2022/09/08 10:43:27;;;;;;;3.08;1.55;;;;;;;27.64;40.34;100742.72;6209719;23;20013;-90
2022/09/08 10:46:02;;;;;;;6.05;1.30;;;;;;;27.17;41.03;100740.81;6209173;23;20031;-90
2022/09/08 10:48:51;;;;;;;5.18;1.38;;;;;;;26.55;42.98;100742.34;6182297;23;20489;-91
2022/09/08 10:51:41;;;;;;;4.72;1.38;;;;;;;27.24;41.95;100740.16;6207080;23;20015;-89
2022/09/08 10:54:21;;;;;;;6.03;1.70;;;;;;;27.22;41.25;100743.00;6209182;23;20421;-90
2022/09/08 10:56:47;;;;;;;5.95;1.42;;;;;;;26.69;41.25;100723.53;6206196;23;20028;-91
2022/09/08 10:59:19;;;;;;;5.70;1.80;;;;;;;26.63;43.62;100726.94;6182169;23;20047;-91
2022/09/08 11:02:07;;;;;;;6.18;1.80;;;;;;;27.29;42.38;100727.75;6176046;23;20012;-91
2022/09/08 11:05:10;;;;;;;4.35;1.25;;;;;;;27.14;42.79;100730.31;6208771;23;20017;-90
2022/09/08 11:08:10;;;;;;;5.70;1.40;;;;;;;27.50;42.68;100729.03;6210220;23;20032;-90
2022/09/08 11:11:03;;;;;;;3.72;1.25;;;;;;;27.02;41.85;100730.81;6207374;23;20336;-90
2022/09/08 11:13:35;;;;;;;2.30;1.30;;;;;;;25.54;45.02;100726.88;6210123;23;20384;-90
2022/09/08 11:16:29;;;;;;;4.20;1.60;;;;;;;24.87;47.32;100731.16;6210087;23;20098;-91
2022/09/08 11:19:03;;;;;;;4.88;1.33;;;;;;;24.73;49.40;100729.84;6183778;23;20432;-90
2022/09/08 11:21:30;;;;;;;3.85;1.40;;;;;;;24.69;49.03;100723.06;6207890;23;20066;-89
2022/09/08 11:24:27;;;;;;;4.25;1.70;;;;;;;25.16;48.07;100725.47;6209282;23;20086;-90
2022/09/08 11:27:37;;;;;;;3.97;1.60;;;;;;;25.45;45.84;100725.13;6180221;23;20090;-89
2022/09/08 11:30:22;;;;;;;4.55;1.55;;;;;;;25.09;47.74;100719.88;6196580;23;20016;-89
2022/09/08 11:33:13;;;;;;;3.38;1.40;;;;;;;24.75;47.94;100724.28;6211162;23;20459;-89
2022/09/08 11:35:47;;;;;;;5.22;1.60;;;;;;;24.49;47.57;100714.28;6209440;23;20001;-91
2022/09/08 11:38:29;;;;;;;6.72;2.00;;;;;;;24.09;48.64;100722.78;6209574;23;20075;-89
2022/09/08 11:41:11;;;;;;;7.07;1.92;;;;;;;23.81;50.61;100706.59;6208655;23;20012;-90
2022/09/08 11:43:43;;;;;;;6.97;2.30;;;;;;;23.29;50.44;100713.47;6208762;23;20116;-90
2022/09/08 11:46:29;;;;;;;5.13;1.80;;;;;;;23.37;51.31;100717.13;6181421;23;20092;-90
2022/09/08 11:49:16;;;;;;;4.93;1.77;;;;;;;23.25;50.97;100715.59;6183637;23;20083;-91
2022/09/08 11:51:51;;;;;;;7.97;2.28;;;;;;;23.69;49.56;100702.41;6183755;23;20276;-91
2022/09/08 11:54:34;;;;;;;5.68;1.70;;;;;;;23.91;48.31;100704.69;6211154;23;20011;-91
2022/09/08 11:57:27;;;;;;;3.88;1.48;;;;;;;23.82;48.76;100702.88;6184593;23;20051;-91
2022/09/08 12:00:05;;;;;;;3.80;1.98;;;;;;;23.79;48.44;100703.22;6207292;23;20004;-90
2022/09/08 12:03:18;;;;;;;2.72;1.63;;;;;;;23.76;48.41;100695.41;6183860;23;20344;-90
2022/09/08 12:05:53;;;;;;;2.80;1.67;;;;;;;24.30;48.05;100692.78;6183416;23;20031;-91
2022/09/08 12:08:21;;;;;;;6.95;1.92;;;;;;;25.17;45.88;100692.00;6184084;23;20013;-91
2022/09/08 12:11:08;;;;;;;5.22;2.30;;;;;;;25.60;44.27;100687.47;6182537;23;20066;-90
2022/09/08 12:14:15;;;;;;;4.30;1.85;;;;;;;25.91;43.46;100688.63;6207678;23;20008;-89
2022/09/08 12:17:24;;;;;;;6.45;1.88;;;;;;;26.43;42.60;100665.88;6192716;23;20433;-91
2022/09/08 12:20:22;;;;;;;5.18;1.88;;;;;;;26.82;40.94;100674.19;6180552;23;20088;-91
2022/09/08 12:23:05;;;;;;;3.95;1.42;;;;;;;26.80;40.91;100665.38;6206552;23;20383;-90
2022/09/08 12:25:33;;;;;;;3.15;1.75;;;;;;;27.19;39.10;100678.25;6179044;23;20008;-91
2022/09/08 12:28:18;;;;;;;5.70;1.75;;;;;;;26.75;38.62;100667.75;6209438;23;20004;-91
2022/09/08 12:31:05;;;;;;;4.30;1.70;;;;;;;26.44;40.01;100659.47;6145509;23;20024;-92
2022/09/08 12:33:30;;;;;;;4.80;1.58;;;;;;;26.48;38.52;100668.09;6182151;23;20342;-91
2022/09/08 12:36:00;;;;;;;5.13;1.57;;;;;;;26.73;39.89;100661.66;6208425;23;19997;-91
2022/09/08 12:38:28;;;;;;;5.97;1.40;;;;;;;26.36;38.49;100660.28;6208683;23;20072;-92
2022/09/08 12:41:05;;;;;;;2.70;1.05;;;;;;;25.53;40.79;100667.50;6181931;23;20482;-91
2022/09/08 12:43:39;;;;;;;2.33;1.25;;;;;;;24.83;41.65;100662.16;6209909;23;20016;-91
2022/09/08 12:46:41;;;;;;;3.15;1.17;;;;;;;24.73;42.85;100669.53;6208809;23;20000;-92
2022/09/08 12:49:28;;;;;;;4.90;1.42;;;;;;;24.33;43.25;100657.31;6181369;23;20020;-91
2022/09/08 12:52:01;;;;;;;4.32;1.40;;;;;;;24.50;44.41;100670.03;6208057;23;20317;-92
2022/09/08 12:54:47;;;;;;;4.47;1.40;;;;;;;24.45;43.58;100663.38;6179968;23;20054;-92
2022/09/08 12:57:24;;;;;;;3.80;1.20;;;;;;;24.75;43.75;100668.34;6180390;23;20429;-91
2022/09/08 12:59:58;;;;;;;3.33;1.17;;;;;;;25.45;42.98;100665.59;6179999;23;20043;-91
2022/09/08 13:02:24;;;;;;;5.50;1.50;;;;;;;26.16;39.34;100664.31;6181911;23;20417;-90
2022/09/08 13:04:51;;;;;;;2.42;1.20;;;;;;;26.04;38.59;100662.94;6211829;23;20070;-92
2022/09/08 13:07:44;;;;;;;3.97;1.13;;;;;;;26.13;38.84;100670.91;6186696;23;20031;-92
2022/09/08 13:10:10;;;;;;;3.95;1.10;;;;;;;26.42;38.21;100670.44;6207813;23;20087;-94
2022/09/08 13:13:08;;;;;;;5.00;1.00;;;;;;;26.45;37.80;100670.13;6179617;23;20417;-93
2022/09/08 13:15:40;;;;;;;4.32;1.08;;;;;;;26.83;38.01;100662.31;6181281;23;20708;-92
2022/09/08 13:18:08;;;;;;;3.50;1.05;;;;;;;27.05;37.00;100665.34;6179577;23;20008;-92
2022/09/08 13:20:43;;;;;;;3.58;1.08;;;;;;;27.03;38.22;100651.09;6180269;23;20436;-93
2022/09/08 13:23:16;;;;;;;3.47;1.10;;;;;;;26.68;36.79;100664.03;6180554;23;20004;-93
2022/09/08 13:25:50;;;;;;;3.05;0.90;;;;;;;26.43;38.92;100671.31;6208588;23;20058;-93
2022/09/08 13:28:58;;;;;;;2.83;1.17;;;;;;;26.49;38.81;100670.66;6182426;23;20013;-92